createdAt,value
2018-09-24T00:01:02.156Z,91.25
2018-09-24T00:03:29.432Z,90.71
2018-09-24T00:05:56.752Z,90.70
2018-09-24T00:08:24.547Z,90.99
2018-09-24T00:10:52.794Z,90.87
2018-09-24T00:13:20.589Z,91.07
2018-09-24T00:15:48.433Z,91.20
2018-09-24T00:21:12.652Z,90.51
2018-09-24T00:23:40.186Z,90.61
2018-09-24T00:26:07.658Z,89.94
2018-09-24T00:28:35.600Z,89.93
2018-09-24T00:31:02.868Z,89.82
2018-09-24T00:33:30.973Z,89.54
2018-09-24T00:35:58.317Z,89.36
2018-09-24T00:38:25.634Z,89.87
2018-09-24T00:40:52.946Z,89.34
2018-09-24T00:43:20.261Z,89.50
2018-09-24T00:45:47.559Z,89.32
2018-09-24T00:48:15.163Z,89.72
2018-09-24T00:50:42.470Z,89.57
2018-09-24T00:53:09.721Z,89.99
2018-09-24T00:55:37.024Z,89.75
2018-09-24T00:58:06.966Z,90.31
2018-09-24T01:00:34.959Z,89.92
2018-09-24T01:03:02.649Z,90.09
2018-09-24T01:05:29.977Z,90.22
2018-09-24T01:07:57.389Z,90.69
2018-09-24T01:10:24.646Z,90.62
2018-09-24T01:12:54.289Z,90.72
2018-09-24T01:15:21.850Z,90.69
2018-09-24T01:17:49.143Z,90.68
2018-09-24T01:20:16.408Z,90.50
2018-09-24T01:22:45.367Z,90.75
2018-09-24T01:25:12.780Z,91.16
2018-09-24T01:27:40.614Z,90.78
2018-09-24T01:30:08.014Z,90.78
2018-09-24T01:32:36.366Z,91.00
2018-09-24T01:35:03.736Z,90.55
2018-09-24T01:37:31.507Z,89.75
2018-09-24T01:39:58.880Z,90.08
2018-09-24T01:42:26.236Z,89.45
2018-09-24T01:44:53.489Z,89.49
2018-09-24T01:47:20.833Z,89.48
2018-09-24T01:49:48.116Z,88.78
2018-09-24T01:52:17.620Z,89.48
2018-09-24T01:54:44.913Z,89.20
2018-09-24T01:57:14.806Z,89.14
2018-09-24T01:59:47.419Z,89.39
2018-09-24T02:02:15.055Z,88.69
2018-09-24T02:04:42.590Z,89.14
2018-09-24T02:07:09.908Z,89.44
2018-09-24T02:09:37.217Z,88.39
2018-09-24T02:12:05.760Z,88.74
2018-09-24T02:14:33.072Z,88.22
2018-09-24T02:17:00.383Z,88.30
2018-09-24T02:19:27.810Z,87.97
2018-09-24T02:21:55.065Z,87.17
2018-09-24T02:24:22.355Z,87.18
2018-09-24T02:26:49.647Z,87.96
2018-09-24T02:29:17.618Z,87.76
2018-09-24T02:31:44.892Z,87.38
2018-09-24T02:34:12.470Z,87.16
2018-09-24T02:36:40.072Z,87.33
2018-09-24T02:39:08.429Z,87.22
2018-09-24T02:41:35.763Z,87.17
2018-09-24T02:44:03.028Z,87.41
2018-09-24T02:46:30.328Z,87.34
2018-09-24T02:49:01.556Z,87.52
2018-09-24T02:51:29.381Z,87.52
2018-09-24T02:53:56.618Z,87.78
2018-09-24T02:56:23.897Z,87.96
2018-09-24T02:58:51.147Z,87.79
2018-09-24T03:01:18.525Z,87.44
2018-09-24T03:03:46.046Z,87.55
2018-09-24T03:06:13.329Z,87.24
2018-09-24T03:08:40.837Z,87.29
2018-09-24T03:11:08.118Z,87.38
2018-09-24T03:13:35.701Z,87.57
2018-09-24T03:16:02.959Z,87.38
2018-09-24T03:18:30.230Z,86.25
2018-09-24T03:20:58.103Z,86.86
2018-09-24T03:23:26.397Z,86.58
2018-09-24T03:25:54.129Z,85.91
2018-09-24T03:28:21.385Z,86.24
2018-09-24T03:30:48.710Z,87.02
2018-09-24T03:33:16.077Z,86.72
2018-09-24T03:35:43.369Z,86.48
2018-09-24T03:38:10.682Z,86.01
2018-09-24T03:40:38.022Z,85.68
2018-09-24T03:43:05.951Z,85.49
2018-09-24T03:45:33.239Z,85.51
2018-09-24T03:48:00.511Z,85.30
2018-09-24T03:50:29.338Z,85.78
2018-09-24T03:52:56.634Z,86.17
2018-09-24T03:55:23.874Z,86.01
2018-09-24T03:57:52.253Z,86.05
2018-09-24T04:00:20.016Z,85.20
2018-09-24T04:02:48.221Z,85.50
2018-09-24T04:05:21.357Z,85.26
2018-09-24T04:07:54.307Z,85.59
2018-09-24T04:10:27.227Z,85.55
2018-09-24T04:13:00.216Z,85.78
2018-09-24T04:15:33.812Z,85.15
2018-09-24T04:18:06.890Z,85.33
2018-09-24T04:20:40.156Z,85.13
2018-09-24T04:23:13.181Z,84.70
2018-09-24T04:25:47.129Z,85.01
2018-09-24T04:28:20.292Z,85.65
2018-09-24T04:30:53.396Z,85.34
2018-09-24T04:33:26.501Z,84.95
2018-09-24T04:35:59.407Z,85.45
2018-09-24T04:38:32.435Z,85.65
2018-09-24T04:41:05.271Z,85.75
2018-09-24T04:43:38.373Z,84.93
2018-09-24T04:46:11.611Z,84.73
2018-09-24T04:48:45.290Z,85.09
2018-09-24T04:51:18.344Z,85.74
2018-09-24T04:53:51.936Z,85.16
2018-09-24T04:56:24.969Z,85.17
2018-09-24T04:59:02.264Z,85.07
2018-09-24T05:01:35.539Z,85.29
2018-09-24T05:04:08.637Z,85.46
2018-09-24T05:06:41.651Z,84.75
2018-09-24T05:09:14.845Z,85.02
2018-09-24T05:11:47.985Z,84.96
2018-09-24T05:14:21.534Z,84.74
2018-09-24T05:16:56.882Z,84.76
2018-09-24T05:19:33.013Z,85.00
2018-09-24T05:22:06.001Z,84.78
2018-09-24T05:24:41.324Z,84.77
2018-09-24T05:27:15.947Z,83.61
2018-09-24T05:29:48.932Z,84.34
2018-09-24T05:32:22.720Z,84.82
2018-09-24T05:34:58.299Z,85.88
2018-09-24T05:37:31.305Z,86.36
2018-09-24T05:40:05.232Z,86.45
2018-09-24T05:42:38.318Z,86.10
2018-09-24T05:45:11.992Z,86.33
2018-09-24T05:47:48.491Z,85.90
2018-09-24T05:50:21.703Z,86.03
2018-09-24T05:52:54.932Z,86.19
2018-09-24T05:55:28.178Z,86.22
2018-09-24T05:58:01.120Z,85.82
2018-09-24T06:00:34.211Z,85.74
2018-09-24T06:03:10.669Z,85.41
2018-09-24T06:05:45.741Z,85.93
2018-09-24T06:08:23.870Z,85.41
2018-09-24T06:10:58.539Z,85.46
2018-09-24T06:13:33.293Z,86.06
2018-09-24T06:16:06.706Z,86.03
2018-09-24T06:18:40.573Z,85.45
2018-09-24T06:21:16.069Z,85.75
2018-09-24T06:23:52.608Z,85.56
2018-09-24T06:26:27.367Z,84.99
2018-09-24T06:29:01.361Z,84.63
2018-09-24T06:31:34.891Z,84.21
2018-09-24T06:34:08.551Z,84.37
2018-09-24T06:36:42.177Z,83.46
2018-09-24T06:39:16.093Z,83.22
2018-09-24T06:41:49.130Z,83.11
2018-09-24T06:44:22.120Z,82.83
2018-09-24T06:46:55.230Z,82.85
2018-09-24T06:49:29.588Z,82.69
2018-09-24T06:52:02.794Z,82.62
2018-09-24T06:54:36.204Z,82.57
2018-09-24T06:57:09.365Z,82.34
2018-09-24T06:59:42.673Z,81.23
2018-09-24T07:02:15.701Z,81.46
2018-09-24T07:04:48.787Z,81.17
2018-09-24T07:07:21.933Z,80.89
2018-09-24T07:09:55.520Z,79.64
2018-09-24T07:12:28.773Z,77.74
2018-09-24T07:15:01.865Z,77.50
2018-09-24T07:17:35.415Z,77.43
2018-09-24T07:20:08.970Z,77.92
2018-09-24T07:22:42.360Z,76.58
2018-09-24T07:25:15.489Z,75.21
2018-09-24T07:27:50.345Z,74.05
2018-09-24T07:30:23.252Z,74.28
2018-09-24T07:32:56.410Z,72.36
2018-09-24T07:35:29.316Z,72.84
2018-09-24T07:40:42.244Z,73.73
2018-09-24T07:43:16.119Z,74.52
2018-09-24T07:45:53.249Z,75.25
2018-09-24T07:48:27.097Z,75.83
2018-09-24T07:51:00.430Z,76.68
2018-09-24T07:53:33.654Z,75.02
2018-09-24T07:56:07.553Z,73.83
2018-09-24T07:58:45.079Z,74.03
2018-09-24T08:01:19.512Z,74.82
2018-09-24T08:03:52.832Z,73.54
2018-09-24T08:06:27.312Z,74.00
2018-09-24T08:09:00.800Z,73.82
2018-09-24T08:11:44.768Z,72.58
2018-09-24T08:14:28.544Z,71.42
2018-09-24T08:17:12.399Z,69.01
2018-09-24T08:20:00.234Z,70.55
2018-09-24T08:22:33.182Z,69.70
2018-09-24T08:25:07.167Z,67.77
2018-09-24T08:27:41.693Z,67.38
2018-09-24T08:30:16.030Z,65.91
2018-09-24T08:32:49.285Z,65.37
2018-09-24T08:35:28.325Z,66.96
2018-09-24T08:38:01.580Z,67.46
2018-09-24T08:43:38.477Z,67.87
2018-09-24T08:46:11.455Z,69.04
2018-09-24T08:48:44.509Z,72.93
2018-09-24T08:51:17.496Z,74.36
2018-09-24T08:53:51.383Z,73.56
2018-09-24T08:56:26.596Z,69.52
2018-09-24T08:59:00.123Z,71.41
2018-09-24T09:01:33.166Z,71.27
2018-09-24T09:04:06.363Z,66.28
2018-09-24T09:06:39.606Z,66.73
2018-09-24T09:09:15.921Z,65.86
2018-09-24T09:11:49.886Z,65.58
2018-09-24T09:14:22.927Z,65.19
2018-09-24T09:17:00.598Z,66.76
2018-09-24T09:19:33.766Z,65.62
2018-09-24T09:22:13.507Z,63.94
2018-09-24T09:24:50.985Z,65.07
2018-09-24T09:27:25.585Z,62.09
2018-09-24T09:30:02.706Z,61.48
2018-09-24T09:32:35.900Z,59.79
2018-09-24T09:35:09.124Z,58.03
2018-09-24T09:37:42.185Z,59.34
2018-09-24T09:40:15.442Z,60.62
2018-09-24T09:42:51.723Z,58.31
2018-09-24T09:45:25.905Z,56.85
2018-09-24T09:48:02.193Z,58.58
2018-09-24T09:50:35.169Z,58.34
2018-09-24T09:53:10.361Z,56.17
2018-09-24T09:55:44.672Z,53.50
2018-09-24T09:58:19.490Z,52.72
2018-09-24T10:00:52.597Z,51.92
2018-09-24T10:03:26.213Z,51.53
2018-09-24T10:06:00.085Z,51.33
2018-09-24T10:08:41.402Z,50.11
2018-09-24T10:14:20.799Z,47.69
2018-09-24T10:16:55.671Z,49.65
2018-09-24T10:19:30.456Z,52.60
2018-09-24T10:22:03.568Z,52.31
2018-09-24T10:24:36.527Z,53.39
2018-09-24T10:27:09.737Z,52.77
2018-09-24T10:29:42.931Z,51.46
2018-09-24T10:32:16.257Z,50.11
2018-09-24T10:34:49.283Z,49.84
2018-09-24T10:37:22.382Z,52.30
2018-09-24T10:40:01.975Z,53.86
2018-09-24T10:42:35.192Z,60.30
2018-09-24T10:45:08.515Z,62.94
2018-09-24T10:47:41.738Z,66.03
2018-09-24T10:50:15.176Z,66.87
2018-09-24T10:52:49.015Z,64.93
2018-09-24T10:55:22.066Z,64.09
2018-09-24T10:57:55.128Z,61.33
2018-09-24T11:00:28.604Z,56.74
2018-09-24T11:03:01.521Z,57.69
2018-09-24T11:05:35.797Z,56.66
2018-09-24T11:08:09.213Z,56.39
2018-09-24T11:10:44.462Z,55.47
2018-09-24T11:13:17.622Z,55.36
2018-09-24T11:16:04.876Z,52.99
2018-09-24T11:18:38.576Z,53.22
2018-09-24T11:21:12.114Z,56.13
2018-09-24T11:23:45.668Z,56.75
2018-09-24T11:28:52.398Z,54.38
2018-09-24T11:31:25.761Z,54.39
2018-09-24T11:34:00.381Z,55.38
2018-09-24T11:36:33.783Z,52.75
2018-09-24T11:39:06.902Z,51.70
2018-09-24T11:41:40.453Z,50.22
2018-09-24T11:44:13.885Z,47.41
2018-09-24T11:46:47.176Z,47.44
2018-09-24T11:49:23.270Z,48.93
2018-09-24T11:51:57.440Z,49.05
2018-09-24T11:54:30.538Z,50.21
2018-09-24T11:57:03.630Z,50.71
2018-09-24T11:59:36.820Z,49.90
2018-09-24T12:02:10.760Z,47.50
2018-09-24T12:04:44.088Z,44.98
2018-09-24T12:07:17.123Z,44.73
2018-09-24T12:09:50.125Z,45.66
2018-09-24T12:12:23.388Z,47.72
2018-09-24T12:14:56.334Z,43.89
2018-09-24T12:17:29.449Z,45.31
2018-09-24T12:20:02.792Z,44.20
2018-09-24T12:22:35.811Z,44.70
2018-09-24T12:25:09.153Z,45.41
2018-09-24T12:27:47.612Z,45.12
2018-09-24T12:30:20.946Z,46.01
2018-09-24T12:32:54.981Z,46.85
2018-09-24T12:35:28.078Z,50.10
2018-09-24T12:38:01.105Z,49.08
2018-09-24T12:40:35.762Z,47.57
2018-09-24T12:43:08.922Z,47.34
2018-09-24T12:45:43.606Z,47.02
2018-09-24T12:48:16.764Z,47.61
2018-09-24T12:50:57.253Z,47.38
2018-09-24T12:53:30.593Z,48.82
2018-09-24T12:56:03.942Z,49.54
2018-09-24T12:58:37.064Z,49.66
2018-09-24T13:01:10.455Z,50.54
2018-09-24T13:03:43.708Z,50.44
2018-09-24T13:06:18.040Z,49.55
2018-09-24T13:08:52.215Z,48.81
2018-09-24T13:11:28.375Z,50.98
2018-09-24T13:14:01.913Z,50.05
2018-09-24T13:16:37.724Z,47.58
2018-09-24T13:19:11.264Z,46.92
2018-09-24T13:21:46.619Z,46.06
2018-09-24T13:24:19.726Z,46.31
2018-09-24T13:26:52.988Z,47.00
2018-09-24T13:29:26.781Z,46.18
2018-09-24T13:32:01.584Z,47.08
2018-09-24T13:34:35.358Z,47.82
2018-09-24T13:37:08.710Z,46.98
2018-09-24T13:39:44.057Z,48.18
2018-09-24T13:42:17.222Z,48.21
2018-09-24T13:44:50.706Z,48.59
2018-09-24T13:47:23.960Z,47.60
2018-09-24T13:49:58.477Z,47.04
2018-09-24T13:52:31.409Z,47.87
2018-09-24T13:55:04.863Z,47.01
2018-09-24T13:57:38.227Z,46.73
2018-09-24T14:00:12.308Z,46.82
2018-09-24T14:02:45.816Z,47.13
2018-09-24T14:05:19.469Z,48.25
2018-09-24T14:07:53.389Z,47.89
2018-09-24T14:10:27.252Z,48.63
2018-09-24T14:13:00.734Z,48.06
2018-09-24T14:15:34.231Z,49.82
2018-09-24T14:18:07.653Z,50.03
2018-09-24T14:20:43.948Z,55.48
2018-09-24T14:23:18.144Z,61.03
2018-09-24T14:25:55.400Z,63.02
2018-09-24T14:28:28.648Z,64.33
2018-09-24T14:31:03.575Z,65.17
2018-09-24T14:33:36.797Z,65.35
2018-09-24T14:36:12.979Z,65.34
2018-09-24T14:38:46.555Z,65.81
2018-09-24T14:41:19.840Z,66.53
2018-09-24T14:43:53.816Z,65.59
2018-09-24T14:46:27.406Z,65.75
2018-09-24T14:49:00.950Z,65.64
2018-09-24T14:51:34.564Z,64.31
2018-09-24T14:54:07.958Z,63.87
2018-09-24T14:56:41.874Z,63.37
2018-09-24T14:59:15.216Z,64.29
2018-09-24T15:01:49.250Z,63.82
2018-09-24T15:04:22.524Z,63.39
2018-09-24T15:06:56.330Z,64.44
2018-09-24T15:09:29.767Z,64.55
2018-09-24T15:12:02.864Z,64.60
2018-09-24T15:14:52.028Z,66.25
2018-09-24T15:17:36.975Z,69.04
2018-09-24T15:20:23.612Z,71.07
2018-09-24T15:23:04.393Z,65.09
2018-09-24T15:25:49.098Z,67.29
2018-09-24T15:28:22.190Z,69.04
2018-09-24T15:30:55.188Z,68.88
2018-09-24T15:33:39.723Z,70.44
2018-09-24T15:36:25.038Z,68.24
2018-09-24T15:38:58.303Z,67.61
2018-09-24T15:41:31.450Z,66.41
2018-09-24T15:44:05.809Z,65.16
2018-09-24T15:46:39.308Z,66.16
2018-09-24T15:49:12.437Z,64.89
2018-09-24T15:51:45.446Z,64.57
2018-09-24T15:54:18.494Z,64.61
2018-09-24T15:56:57.012Z,63.81
2018-09-24T15:59:30.264Z,62.86
2018-09-24T16:02:03.848Z,61.48
2018-09-24T16:04:36.888Z,60.70
2018-09-24T16:07:10.055Z,61.51
2018-09-24T16:09:44.491Z,61.82
2018-09-24T16:12:17.677Z,65.50
2018-09-24T16:14:50.987Z,69.54
2018-09-24T16:17:24.320Z,70.70
2018-09-24T16:19:57.667Z,71.11
2018-09-24T16:22:30.797Z,69.45
2018-09-24T16:25:03.780Z,70.23
2018-09-24T16:27:36.915Z,70.67
2018-09-24T16:30:15.241Z,71.40
2018-09-24T16:32:52.259Z,69.47
2018-09-24T16:35:25.951Z,69.30
2018-09-24T16:38:02.632Z,69.09
2018-09-24T16:40:37.302Z,68.12
2018-09-24T16:46:09.798Z,65.45
2018-09-24T16:48:52.122Z,65.40
2018-09-24T16:51:25.392Z,64.67
2018-09-24T16:53:58.708Z,65.36
2018-09-24T16:56:32.642Z,66.01
2018-09-24T16:59:06.997Z,66.09
2018-09-24T17:01:40.200Z,65.76
2018-09-24T17:04:13.980Z,65.63
2018-09-24T17:06:52.448Z,65.76
2018-09-24T17:33:29.304Z,70.75
2018-09-24T17:36:17.339Z,71.97
2018-09-24T17:38:50.363Z,71.96
2018-09-24T17:41:24.338Z,72.91
2018-09-24T17:43:57.328Z,73.33
2018-09-24T17:46:30.979Z,73.23
2018-09-24T17:49:03.823Z,74.07
2018-09-24T17:51:39.764Z,74.37
2018-09-24T17:54:12.735Z,74.22
2018-09-24T17:56:46.995Z,74.41
2018-09-24T17:59:19.980Z,74.15
2018-09-24T18:01:55.277Z,74.24
2018-09-24T18:04:28.920Z,73.87
2018-09-24T18:07:02.991Z,73.94
2018-09-24T18:09:38.936Z,73.81
2018-09-24T18:12:11.943Z,73.83
2018-09-24T18:14:45.906Z,73.92
2018-09-24T18:17:19.507Z,74.22
2018-09-24T18:19:52.429Z,74.14
2018-09-24T18:22:25.532Z,74.49
2018-09-24T18:24:58.472Z,76.51
2018-09-24T18:27:31.588Z,75.36
2018-09-24T18:30:06.167Z,74.16
2018-09-24T18:32:39.127Z,74.89
2018-09-24T18:35:12.246Z,75.63
2018-09-24T18:37:45.114Z,76.21
2018-09-24T18:40:18.024Z,76.01
2018-09-24T18:42:51.263Z,76.64
2018-09-24T18:45:24.904Z,76.65
2018-09-24T18:47:57.723Z,77.14
2018-09-24T18:50:30.641Z,77.35
2018-09-24T18:53:03.596Z,78.29
2018-09-24T18:55:36.647Z,78.71
2018-09-24T18:58:09.666Z,78.63
2018-09-24T19:00:42.673Z,78.02
2018-09-24T19:03:15.712Z,77.12
2018-09-24T19:08:52.397Z,77.44
2018-09-24T19:11:27.957Z,77.49
2018-09-24T19:13:58.477Z,76.97
2018-09-24T19:16:32.407Z,77.03
2018-09-24T19:19:06.568Z,76.35
2018-09-24T19:21:39.606Z,76.49
2018-09-24T19:24:12.788Z,76.51
2018-09-24T19:26:45.825Z,76.57
2018-09-24T19:29:19.864Z,76.69
2018-09-24T19:31:55.100Z,77.02
2018-09-24T19:34:33.664Z,76.83
2018-09-24T19:37:15.448Z,76.55
2018-09-24T19:39:52.958Z,77.18
2018-09-24T19:42:29.455Z,77.57
2018-09-24T19:45:07.807Z,77.64
2018-09-24T19:47:55.393Z,77.22
2018-09-24T19:50:44.783Z,77.03
2018-09-24T19:53:22.588Z,78.00
2018-09-24T19:55:58.089Z,78.22
2018-09-24T19:58:36.486Z,79.28
2018-09-24T20:01:16.241Z,79.38
2018-09-24T20:03:55.517Z,79.33
2018-09-24T20:06:32.020Z,79.74
2018-09-24T20:09:05.756Z,80.69
2018-09-24T20:11:39.118Z,80.33
2018-09-24T20:14:12.640Z,80.54
2018-09-24T20:16:45.890Z,80.07
2018-09-24T20:19:19.291Z,79.83
2018-09-24T20:21:52.608Z,80.17
2018-09-24T20:24:25.899Z,80.04
2018-09-24T20:26:59.119Z,79.90
2018-09-24T20:29:32.915Z,79.89
2018-09-24T20:32:06.221Z,79.96
2018-09-24T20:34:40.302Z,79.70
2018-09-24T20:37:13.275Z,79.12
2018-09-24T20:39:46.162Z,78.92
2018-09-24T20:42:21.395Z,79.24
2018-09-24T20:44:54.783Z,78.87
2018-09-24T20:47:28.031Z,77.48
2018-09-24T20:50:00.977Z,78.21
2018-09-24T20:52:34.272Z,78.07
2018-09-24T20:55:07.301Z,78.41
2018-09-24T20:57:41.855Z,79.26
2018-09-24T21:00:14.974Z,80.49
2018-09-24T21:02:48.812Z,80.27
2018-09-24T21:05:22.324Z,80.57
2018-09-24T21:07:55.446Z,80.94
2018-09-24T21:10:31.924Z,81.01
2018-09-24T21:13:05.132Z,81.64
2018-09-24T21:15:38.759Z,82.11
2018-09-24T21:18:12.623Z,81.89
2018-09-24T21:20:46.363Z,81.84
2018-09-24T21:23:19.507Z,82.08
2018-09-24T21:25:52.615Z,81.83
2018-09-24T21:28:26.214Z,82.06
2018-09-24T21:30:59.341Z,82.07
2018-09-24T21:33:33.170Z,82.20
2018-09-24T21:36:06.456Z,82.00
2018-09-24T21:38:40.523Z,82.74
2018-09-24T21:41:13.591Z,82.86
2018-09-24T21:43:46.992Z,82.12
2018-09-24T21:46:20.326Z,82.96
2018-09-24T21:48:53.320Z,82.39
2018-09-24T21:51:27.255Z,83.12
2018-09-24T21:54:01.069Z,82.95
2018-09-24T21:56:34.723Z,82.92
2018-09-24T21:59:07.687Z,83.53
2018-09-24T22:01:40.563Z,83.82
2018-09-24T22:04:13.610Z,83.96
2018-09-24T22:06:47.127Z,83.06
2018-09-24T22:09:20.181Z,83.13
2018-09-24T22:11:55.486Z,83.23
2018-09-24T22:14:28.415Z,83.26
2018-09-24T22:17:01.482Z,83.48
2018-09-24T22:19:34.410Z,83.20
2018-09-24T22:22:20.778Z,82.59
2018-09-24T22:24:53.806Z,82.73
2018-09-24T22:27:26.748Z,82.56
2018-09-24T22:29:59.664Z,82.61
2018-09-24T22:32:32.612Z,83.47
2018-09-24T22:35:05.604Z,83.38
2018-09-24T22:37:38.614Z,84.02
2018-09-24T22:40:11.814Z,84.38
2018-09-24T22:42:44.785Z,84.93
2018-09-24T22:45:17.737Z,84.75
2018-09-24T22:47:50.589Z,85.29
2018-09-24T22:50:23.984Z,85.44
2018-09-24T22:52:56.948Z,85.44
2018-09-24T22:55:29.952Z,85.04
2018-09-24T22:58:02.927Z,85.63
2018-09-24T23:00:36.141Z,85.06
2018-09-24T23:03:09.138Z,85.29
2018-09-24T23:05:42.129Z,85.53
2018-09-24T23:08:18.522Z,84.99
2018-09-24T23:10:52.439Z,84.55
2018-09-24T23:13:25.608Z,85.03
2018-09-24T23:15:59.612Z,85.37
2018-09-24T23:18:33.617Z,85.80
2018-09-24T23:21:06.810Z,86.01
2018-09-24T23:23:39.696Z,86.06
2018-09-24T23:26:12.989Z,86.34
2018-09-24T23:28:46.134Z,86.47
2018-09-24T23:31:20.953Z,85.95
2018-09-24T23:33:53.891Z,86.55
2018-09-24T23:36:26.825Z,86.67
2018-09-24T23:38:59.676Z,87.01
2018-09-24T23:41:32.611Z,86.75
2018-09-24T23:44:07.019Z,86.53
2018-09-24T23:46:40.134Z,86.95
2018-09-24T23:49:13.348Z,87.06
2018-09-24T23:51:46.654Z,87.15
2018-09-24T23:54:20.506Z,86.90
2018-09-24T23:56:54.392Z,86.28
2018-09-24T23:59:29.061Z,85.80
